createdAt,value
2017-06-28T00:00:06.080Z,0
2017-06-28T00:00:46.652Z,0
2017-06-28T00:01:27.503Z,0
2017-06-28T00:02:08.121Z,0
2017-06-28T00:02:48.677Z,0
2017-06-28T00:03:29.286Z,0
2017-06-28T00:04:09.876Z,0
2017-06-28T00:04:50.447Z,0
2017-06-28T00:05:31.032Z,0
2017-06-28T00:06:11.609Z,0
2017-06-28T00:06:52.188Z,0
2017-06-28T00:07:32.753Z,0
2017-06-28T00:08:13.335Z,0
2017-06-28T00:08:53.937Z,0
2017-06-28T00:09:34.556Z,0
2017-06-28T00:10:15.126Z,0
2017-06-28T00:10:55.912Z,0
2017-06-28T00:11:36.482Z,0
2017-06-28T00:12:17.048Z,0
2017-06-28T00:12:57.629Z,0
2017-06-28T00:13:38.205Z,0
2017-06-28T00:14:18.772Z,0
2017-06-28T00:14:59.363Z,0
2017-06-28T00:15:39.960Z,0
2017-06-28T00:16:20.539Z,0
2017-06-28T00:17:01.116Z,0
2017-06-28T00:17:41.726Z,0
2017-06-28T00:18:22.391Z,0
2017-06-28T00:19:02.950Z,0
2017-06-28T00:19:43.526Z,0
2017-06-28T00:20:24.115Z,0
2017-06-28T00:21:04.680Z,0
2017-06-28T00:21:45.280Z,0
2017-06-28T00:22:25.849Z,0
2017-06-28T00:23:06.432Z,0
2017-06-28T00:23:47.014Z,0
2017-06-28T00:24:27.593Z,0
2017-06-28T00:25:08.159Z,0
2017-06-28T00:25:48.735Z,0
2017-06-28T00:26:29.299Z,0
2017-06-28T00:27:09.882Z,0
2017-06-28T00:27:50.450Z,0
2017-06-28T00:28:31.041Z,0
2017-06-28T00:29:11.618Z,0
2017-06-28T00:29:52.203Z,0
2017-06-28T00:30:32.775Z,0
2017-06-28T00:31:13.348Z,0
2017-06-28T00:31:53.916Z,0
2017-06-28T00:32:34.494Z,0
2017-06-28T00:33:15.067Z,0
2017-06-28T00:33:55.649Z,0
2017-06-28T00:34:36.226Z,0
2017-06-28T00:35:16.790Z,0
2017-06-28T00:35:57.362Z,0
2017-06-28T00:36:37.929Z,0
2017-06-28T00:37:18.511Z,0
2017-06-28T00:37:59.114Z,0
2017-06-28T00:38:39.692Z,0
2017-06-28T00:39:20.316Z,0
2017-06-28T00:40:00.888Z,0
2017-06-28T00:40:41.418Z,0
2017-06-28T00:41:22.011Z,0
2017-06-28T00:42:02.586Z,0
2017-06-28T00:42:43.160Z,0
2017-06-28T00:43:23.723Z,0
2017-06-28T00:44:04.305Z,0
2017-06-28T00:44:44.861Z,0
2017-06-28T00:45:25.441Z,0
2017-06-28T00:46:06.047Z,0
2017-06-28T00:46:46.615Z,0
2017-06-28T00:47:27.178Z,0
2017-06-28T00:48:07.771Z,0
2017-06-28T00:48:48.364Z,0
2017-06-28T00:49:28.977Z,0
2017-06-28T00:50:09.591Z,0
2017-06-28T00:50:50.184Z,0
2017-06-28T00:51:30.770Z,0
2017-06-28T00:52:11.332Z,0
2017-06-28T00:52:51.928Z,0
2017-06-28T00:53:32.550Z,0
2017-06-28T00:54:13.125Z,0
2017-06-28T00:54:53.709Z,0
2017-06-28T00:55:34.262Z,0
2017-06-28T00:56:14.838Z,0
2017-06-28T00:56:55.419Z,0
2017-06-28T00:57:35.994Z,0
2017-06-28T00:58:16.558Z,0
2017-06-28T00:58:57.126Z,0
2017-06-28T00:59:37.710Z,0
2017-06-28T01:00:18.306Z,0
2017-06-28T01:00:58.869Z,0
2017-06-28T01:01:39.454Z,0
2017-06-28T01:02:20.016Z,0
2017-06-28T01:03:00.611Z,0
2017-06-28T01:03:41.195Z,0
2017-06-28T01:04:21.790Z,0
2017-06-28T01:05:02.377Z,0
2017-06-28T01:05:42.956Z,0
2017-06-28T01:06:23.547Z,0
2017-06-28T01:07:04.117Z,0
2017-06-28T01:07:44.690Z,0
2017-06-28T01:08:25.265Z,0
2017-06-28T01:09:05.825Z,0
2017-06-28T01:09:46.427Z,0
2017-06-28T01:10:27.021Z,0
2017-06-28T01:11:07.580Z,0
2017-06-28T01:11:48.156Z,0
2017-06-28T01:12:28.728Z,0
2017-06-28T01:13:09.289Z,0
2017-06-28T01:13:49.877Z,0
2017-06-28T01:14:30.457Z,0
2017-06-28T01:15:11.039Z,0
2017-06-28T01:15:51.601Z,0
2017-06-28T01:16:32.208Z,0
2017-06-28T01:17:12.790Z,0
2017-06-28T01:17:53.377Z,0
2017-06-28T01:18:33.972Z,0
2017-06-28T01:19:14.557Z,0
2017-06-28T01:19:55.126Z,0
2017-06-28T01:20:35.739Z,0
2017-06-28T01:21:16.312Z,0
2017-06-28T01:21:56.885Z,0
2017-06-28T01:22:37.459Z,0
2017-06-28T01:23:18.028Z,0
2017-06-28T01:23:58.606Z,0
2017-06-28T01:24:39.180Z,0
2017-06-28T01:25:19.768Z,0
2017-06-28T01:26:00.340Z,0
2017-06-28T01:26:40.932Z,0
2017-06-28T01:27:21.495Z,0
2017-06-28T01:28:02.086Z,0
2017-06-28T01:28:42.671Z,0
2017-06-28T01:29:23.258Z,0
2017-06-28T01:30:03.850Z,0
2017-06-28T01:30:44.438Z,0
2017-06-28T01:31:25.005Z,0
2017-06-28T01:32:05.582Z,0
2017-06-28T01:32:46.160Z,0
2017-06-28T01:33:26.727Z,0
2017-06-28T01:34:07.296Z,0
2017-06-28T01:34:47.903Z,0
2017-06-28T01:35:28.463Z,0
2017-06-28T01:36:09.030Z,0
2017-06-28T01:36:49.604Z,0
2017-06-28T01:37:30.169Z,0
2017-06-28T01:38:10.730Z,0
2017-06-28T01:38:51.313Z,0
2017-06-28T01:39:31.896Z,0
2017-06-28T01:40:12.463Z,0
2017-06-28T01:40:53.044Z,0
2017-06-28T01:41:33.636Z,0
2017-06-28T01:42:14.207Z,0
2017-06-28T01:42:54.782Z,0
2017-06-28T01:43:35.375Z,0
2017-06-28T01:44:15.954Z,0
2017-06-28T01:44:56.516Z,0
2017-06-28T01:45:37.147Z,0
2017-06-28T01:46:17.727Z,0
2017-06-28T01:46:58.290Z,0
2017-06-28T01:47:38.899Z,0
2017-06-28T01:48:19.486Z,0
2017-06-28T01:49:00.048Z,0
2017-06-28T01:49:40.665Z,0
2017-06-28T01:50:21.217Z,0
2017-06-28T01:51:01.804Z,0
2017-06-28T01:51:42.412Z,0
2017-06-28T01:52:23.010Z,0
2017-06-28T01:53:03.590Z,0
2017-06-28T01:53:44.173Z,0
2017-06-28T01:54:24.753Z,0
2017-06-28T01:55:05.310Z,0
2017-06-28T01:55:45.891Z,0
2017-06-28T01:56:26.477Z,0
2017-06-28T01:57:07.079Z,0
2017-06-28T01:57:47.652Z,0
2017-06-28T01:58:28.260Z,0
2017-06-28T01:59:08.847Z,0
2017-06-28T01:59:49.417Z,0
2017-06-28T02:00:30.006Z,0
2017-06-28T02:01:10.622Z,0
2017-06-28T02:01:51.198Z,0
2017-06-28T02:02:31.787Z,0
2017-06-28T02:03:12.334Z,0
2017-06-28T02:03:52.901Z,0
2017-06-28T02:04:33.482Z,0
2017-06-28T02:05:14.068Z,0
2017-06-28T02:05:54.648Z,0
2017-06-28T02:06:35.218Z,4
2017-06-28T02:07:15.791Z,4
2017-06-28T02:07:56.361Z,4
2017-06-28T02:08:36.964Z,4
2017-06-28T02:09:17.571Z,0
2017-06-28T02:09:58.163Z,0
2017-06-28T02:10:38.763Z,0
2017-06-28T02:11:19.350Z,4
2017-06-28T02:11:59.928Z,4
2017-06-28T02:12:40.491Z,4
2017-06-28T02:13:21.090Z,4
2017-06-28T02:14:01.680Z,4
2017-06-28T02:14:42.246Z,4
2017-06-28T02:15:22.835Z,4
2017-06-28T02:16:03.432Z,8
2017-06-28T02:16:44.003Z,4
2017-06-28T02:17:24.577Z,4
2017-06-28T02:18:05.150Z,8
2017-06-28T02:18:45.736Z,4
2017-06-28T02:19:26.310Z,8
2017-06-28T02:20:06.900Z,8
2017-06-28T02:20:47.521Z,8
2017-06-28T02:21:28.094Z,8
2017-06-28T02:22:08.668Z,12
2017-06-28T02:22:49.260Z,8
2017-06-28T02:23:29.873Z,12
2017-06-28T02:24:10.454Z,12
2017-06-28T02:24:51.055Z,16
2017-06-28T02:25:31.629Z,16
2017-06-28T02:26:12.209Z,16
2017-06-28T02:26:52.773Z,16
2017-06-28T02:27:33.354Z,20
2017-06-28T02:28:13.924Z,16
2017-06-28T02:28:54.504Z,20
2017-06-28T02:29:35.082Z,20
2017-06-28T02:30:15.629Z,24
2017-06-28T02:30:56.205Z,24
2017-06-28T02:31:36.782Z,24
2017-06-28T02:32:17.352Z,28
2017-06-28T02:32:57.924Z,32
2017-06-28T02:33:38.510Z,32
2017-06-28T02:34:19.061Z,32
2017-06-28T02:34:59.640Z,36
2017-06-28T02:35:40.222Z,36
2017-06-28T02:36:20.817Z,36
2017-06-28T02:37:01.415Z,40
2017-06-28T02:37:42.000Z,44
2017-06-28T02:38:22.580Z,48
2017-06-28T02:39:03.164Z,48
2017-06-28T02:39:43.736Z,52
2017-06-28T02:40:24.330Z,56
2017-06-28T02:41:04.908Z,60
2017-06-28T02:41:45.478Z,64
2017-06-28T02:42:26.063Z,68
2017-06-28T02:43:06.657Z,68
2017-06-28T02:43:47.248Z,72
2017-06-28T02:44:27.817Z,76
2017-06-28T02:45:08.378Z,80
2017-06-28T02:45:49.002Z,84
2017-06-28T02:46:29.570Z,88
2017-06-28T02:47:10.144Z,92
2017-06-28T02:47:50.720Z,96
2017-06-28T02:48:31.289Z,100
2017-06-28T02:49:11.879Z,108
2017-06-28T02:49:52.497Z,116
2017-06-28T02:50:33.079Z,120
2017-06-28T02:51:13.650Z,128
2017-06-28T02:51:54.225Z,136
2017-06-28T02:52:34.794Z,140
2017-06-28T02:53:15.404Z,148
2017-06-28T02:53:56.014Z,156
2017-06-28T02:54:36.555Z,168
2017-06-28T02:55:17.150Z,180
2017-06-28T02:55:57.711Z,188
2017-06-28T02:56:38.314Z,196
2017-06-28T02:57:18.878Z,208
2017-06-28T02:57:59.461Z,216
2017-06-28T02:58:40.051Z,228
2017-06-28T02:59:20.620Z,236
2017-06-28T03:00:01.220Z,244
2017-06-28T03:00:41.808Z,248
2017-06-28T03:01:22.418Z,256
2017-06-28T03:02:03.000Z,268
2017-06-28T03:02:43.592Z,268
2017-06-28T03:03:24.179Z,276
2017-06-28T03:04:04.751Z,284
2017-06-28T03:04:45.339Z,292
2017-06-28T03:05:25.927Z,300
2017-06-28T03:06:06.513Z,308
2017-06-28T03:06:47.085Z,316
2017-06-28T03:07:27.691Z,332
2017-06-28T03:08:08.290Z,340
2017-06-28T03:08:48.904Z,352
2017-06-28T03:09:29.491Z,364
2017-06-28T03:10:10.080Z,372
2017-06-28T03:10:50.658Z,380
2017-06-28T03:11:31.262Z,380
2017-06-28T03:12:11.839Z,384
2017-06-28T03:12:52.411Z,380
2017-06-28T03:13:32.980Z,376
2017-06-28T03:14:13.574Z,376
2017-06-28T03:14:54.152Z,380
2017-06-28T03:15:34.720Z,384
2017-06-28T03:16:15.315Z,384
2017-06-28T03:16:55.911Z,376
2017-06-28T03:17:36.484Z,368
2017-06-28T03:18:17.066Z,360
2017-06-28T03:18:57.633Z,360
2017-06-28T03:19:38.228Z,356
2017-06-28T03:20:18.823Z,356
2017-06-28T03:20:59.395Z,356
2017-06-28T03:21:39.961Z,356
2017-06-28T03:22:20.540Z,352
2017-06-28T03:23:01.086Z,344
2017-06-28T03:23:41.667Z,344
2017-06-28T03:24:22.229Z,340
2017-06-28T03:25:02.806Z,340
2017-06-28T03:25:43.397Z,340
2017-06-28T03:26:23.986Z,336
2017-06-28T03:27:04.563Z,332
2017-06-28T03:27:45.158Z,328
2017-06-28T03:28:25.720Z,332
2017-06-28T03:29:06.306Z,332
2017-06-28T03:29:46.887Z,336
2017-06-28T03:30:27.459Z,336
2017-06-28T03:31:08.030Z,336
2017-06-28T03:31:48.592Z,340
2017-06-28T03:32:29.146Z,344
2017-06-28T03:33:09.750Z,344
2017-06-28T03:33:50.386Z,352
2017-06-28T03:34:30.955Z,356
2017-06-28T03:35:11.533Z,364
2017-06-28T03:35:52.100Z,368
2017-06-28T03:36:32.672Z,372
2017-06-28T03:37:13.236Z,380
2017-06-28T03:37:53.808Z,380
2017-06-28T03:38:34.381Z,384
2017-06-28T03:39:14.960Z,396
2017-06-28T03:39:55.532Z,408
2017-06-28T03:40:36.102Z,416
2017-06-28T03:41:16.698Z,428
2017-06-28T03:41:57.255Z,444
2017-06-28T03:42:37.832Z,460
2017-06-28T03:43:18.393Z,476
2017-06-28T03:43:58.996Z,492
2017-06-28T03:44:39.564Z,508
2017-06-28T03:45:20.150Z,520
2017-06-28T03:46:00.733Z,532
2017-06-28T03:46:41.307Z,548
2017-06-28T03:47:21.902Z,564
2017-06-28T03:48:02.468Z,580
2017-06-28T03:48:43.068Z,592
2017-06-28T03:49:23.655Z,608
2017-06-28T03:50:04.235Z,628
2017-06-28T03:50:44.816Z,648
2017-06-28T03:51:25.394Z,676
2017-06-28T03:52:05.962Z,704
2017-06-28T03:52:46.555Z,732
2017-06-28T03:53:27.128Z,768
2017-06-28T03:54:07.691Z,808
2017-06-28T03:54:48.285Z,852
2017-06-28T03:55:28.867Z,900
2017-06-28T03:56:09.431Z,948
2017-06-28T03:56:49.999Z,1008
2017-06-28T03:57:30.575Z,1068
2017-06-28T03:58:11.138Z,1108
2017-06-28T03:58:51.742Z,1148
2017-06-28T03:59:32.301Z,1172
2017-06-28T04:00:12.873Z,1184
2017-06-28T04:00:53.455Z,1196
2017-06-28T04:01:34.009Z,1196
2017-06-28T04:02:14.580Z,1196
2017-06-28T04:02:55.150Z,1188
2017-06-28T04:03:35.715Z,1168
2017-06-28T04:04:16.299Z,1160
2017-06-28T04:04:56.872Z,1156
2017-06-28T04:05:37.459Z,1156
2017-06-28T04:06:18.030Z,1172
2017-06-28T04:06:58.606Z,1192
2017-06-28T04:07:39.175Z,1220
2017-06-28T04:08:19.772Z,1248
2017-06-28T04:09:00.344Z,1280
2017-06-28T04:09:40.935Z,1308
2017-06-28T04:10:21.499Z,1332
2017-06-28T04:11:02.065Z,1352
2017-06-28T04:11:42.634Z,1348
2017-06-28T04:12:23.247Z,1344
2017-06-28T04:13:03.835Z,1328
2017-06-28T04:13:44.430Z,1312
2017-06-28T04:14:25.015Z,1312
2017-06-28T04:15:05.585Z,1324
2017-06-28T04:15:46.193Z,1336
2017-06-28T04:16:26.716Z,1348
2017-06-28T04:17:07.305Z,1364
2017-06-28T04:17:47.878Z,1372
2017-06-28T04:18:28.452Z,1380
2017-06-28T04:19:09.024Z,1396
2017-06-28T04:19:49.589Z,1428
2017-06-28T04:20:30.150Z,1464
2017-06-28T04:21:10.710Z,1492
2017-06-28T04:21:51.305Z,1492
2017-06-28T04:22:31.898Z,1464
2017-06-28T04:23:12.470Z,1440
2017-06-28T04:23:53.046Z,1440
2017-06-28T04:24:33.613Z,1480
2017-06-28T04:25:14.193Z,1512
2017-06-28T04:25:54.789Z,1568
2017-06-28T04:26:35.360Z,1688
2017-06-28T04:27:15.960Z,1844
2017-06-28T04:27:56.532Z,2032
2017-06-28T04:28:37.122Z,2204
2017-06-28T04:29:17.701Z,2344
2017-06-28T04:29:58.276Z,2444
2017-06-28T04:30:38.882Z,2500
2017-06-28T04:31:19.453Z,2500
2017-06-28T04:32:00.030Z,2468
2017-06-28T04:32:40.626Z,2432
2017-06-28T04:33:21.208Z,2392
2017-06-28T04:34:01.772Z,2352
2017-06-28T04:34:42.338Z,2300
2017-06-28T04:35:22.930Z,2252
2017-06-28T04:36:03.498Z,2196
2017-06-28T04:36:44.077Z,2144
2017-06-28T04:37:24.636Z,2088
2017-06-28T04:38:05.248Z,2040
2017-06-28T04:38:45.808Z,1980
2017-06-28T04:39:26.446Z,1908
2017-06-28T04:40:07.034Z,1824
2017-06-28T04:40:47.588Z,1756
2017-06-28T04:41:28.150Z,1708
2017-06-28T04:42:08.792Z,1680
2017-06-28T04:42:49.393Z,1672
2017-06-28T04:43:29.980Z,1684
2017-06-28T04:44:10.559Z,1732
2017-06-28T04:44:51.164Z,1776
2017-06-28T04:45:31.723Z,1804
2017-06-28T04:46:12.295Z,1784
2017-06-28T04:46:52.863Z,1704
2017-06-28T04:47:33.441Z,1616
2017-06-28T04:48:14.040Z,1552
2017-06-28T04:48:54.610Z,1544
2017-06-28T04:49:35.197Z,1600
2017-06-28T04:50:15.760Z,1708
2017-06-28T04:50:56.348Z,1908
2017-06-28T04:51:36.937Z,2092
2017-06-28T04:52:17.523Z,2344
2017-06-28T04:52:58.105Z,2412
2017-06-28T04:53:38.677Z,2528
2017-06-28T04:54:19.250Z,2636
2017-06-28T04:54:59.879Z,2760
2017-06-28T04:55:40.477Z,2848
2017-06-28T04:56:21.048Z,2996
2017-06-28T04:57:01.619Z,3036
2017-06-28T04:57:42.181Z,3096
2017-06-28T04:58:22.760Z,3100
2017-06-28T04:59:03.326Z,3172
2017-06-28T04:59:43.890Z,3188
2017-06-28T05:00:24.483Z,3248
2017-06-28T05:01:05.070Z,3296
2017-06-28T05:01:45.637Z,3352
2017-06-28T05:02:26.209Z,3420
2017-06-28T05:03:06.777Z,3492
2017-06-28T05:03:47.338Z,3572
2017-06-28T05:04:27.905Z,3668
2017-06-28T05:05:08.471Z,3804
2017-06-28T05:05:49.050Z,3948
2017-06-28T05:06:29.651Z,4116
2017-06-28T05:07:10.209Z,4268
2017-06-28T05:07:50.800Z,4384
2017-06-28T05:08:31.377Z,4452
2017-06-28T05:09:11.947Z,4524
2017-06-28T05:09:52.507Z,4584
2017-06-28T05:10:33.101Z,4664
2017-06-28T05:11:13.703Z,4652
2017-06-28T05:11:54.283Z,4592
2017-06-28T05:12:34.853Z,4504
2017-06-28T05:13:15.437Z,4480
2017-06-28T05:13:56.013Z,4584
2017-06-28T05:14:36.588Z,4724
2017-06-28T05:15:17.167Z,4880
2017-06-28T05:15:57.729Z,5084
2017-06-28T05:16:38.293Z,5468
2017-06-28T05:17:18.867Z,6036
2017-06-28T05:17:59.438Z,6660
2017-06-28T05:18:40.018Z,7156
2017-06-28T05:19:20.592Z,7356
2017-06-28T05:20:01.173Z,7612
2017-06-28T05:20:41.739Z,7824
2017-06-28T05:21:22.298Z,8224
2017-06-28T05:22:02.892Z,7372
2017-06-28T05:22:43.456Z,7144
2017-06-28T05:23:24.030Z,7128
2017-06-28T05:24:04.643Z,7840
2017-06-28T05:24:45.209Z,8508
2017-06-28T05:25:25.776Z,10244
2017-06-28T05:26:06.355Z,18624
2017-06-28T05:26:46.940Z,23840
2017-06-28T05:27:27.536Z,24832
2017-06-28T05:28:08.129Z,34176
2017-06-28T05:28:48.700Z,61472
2017-06-28T05:29:29.281Z,68896
2017-06-28T05:30:09.901Z,69344
2017-06-28T05:30:50.448Z,52928
2017-06-28T05:31:31.011Z,65344
2017-06-28T05:32:11.610Z,51552
2017-06-28T05:32:52.186Z,72864
2017-06-28T05:33:32.782Z,76352
2017-06-28T05:34:13.365Z,84768
2017-06-28T05:34:53.924Z,76832
2017-06-28T05:35:34.535Z,71072
2017-06-28T05:36:15.145Z,75360
2017-06-28T05:36:55.721Z,65888
2017-06-28T05:37:36.304Z,56096
2017-06-28T05:38:16.898Z,65504
2017-06-28T05:38:57.495Z,68992
2017-06-28T05:39:38.117Z,69984
2017-06-28T05:40:18.693Z,77312
2017-06-28T05:40:59.296Z,86528
2017-06-28T05:41:39.885Z,82880
2017-06-28T05:42:20.464Z,80608
2017-06-28T05:43:01.055Z,81568
2017-06-28T05:43:41.649Z,82240
2017-06-28T05:44:22.219Z,82240
2017-06-28T05:45:02.793Z,81472
2017-06-28T05:45:43.444Z,80544
2017-06-28T05:46:24.011Z,80416
2017-06-28T05:47:04.588Z,79584
2017-06-28T05:47:45.154Z,78272
2017-06-28T05:48:25.754Z,77024
2017-06-28T05:49:06.360Z,76512
2017-06-28T05:49:46.936Z,77888
2017-06-28T05:50:27.501Z,78976
2017-06-28T05:51:08.079Z,79648
2017-06-28T05:51:48.651Z,77184
2017-06-28T05:52:29.243Z,74528
2017-06-28T05:53:09.825Z,74464
2017-06-28T05:53:50.410Z,74880
2017-06-28T05:54:30.985Z,76032
2017-06-28T05:55:11.595Z,76672
2017-06-28T05:55:52.169Z,77600
2017-06-28T05:56:32.749Z,78016
2017-06-28T05:57:13.333Z,78560
2017-06-28T05:57:53.918Z,79264
2017-06-28T05:58:34.518Z,79360
2017-06-28T05:59:15.089Z,79392
2017-06-28T05:59:55.679Z,80064
2017-06-28T06:00:36.303Z,80928
2017-06-28T06:01:16.981Z,81248
2017-06-28T06:01:57.559Z,81728
2017-06-28T06:02:38.174Z,77984
2017-06-28T06:03:18.753Z,72512
2017-06-28T06:03:59.332Z,74048
2017-06-28T06:04:39.942Z,78368
2017-06-28T06:05:20.543Z,79296
2017-06-28T06:06:01.122Z,82272
2017-06-28T06:06:41.749Z,83744
2017-06-28T06:07:22.330Z,84512
2017-06-28T06:08:02.944Z,83936
2017-06-28T06:08:43.543Z,83488
2017-06-28T06:09:24.151Z,82816
2017-06-28T06:10:04.757Z,81760
2017-06-28T06:10:45.353Z,82112
2017-06-28T06:11:25.918Z,83936
2017-06-28T06:12:06.493Z,85376
2017-06-28T06:12:47.072Z,85280
2017-06-28T06:13:27.646Z,85120
2017-06-28T06:14:08.242Z,85792
2017-06-28T06:14:48.821Z,87136
2017-06-28T06:15:29.422Z,86976
2017-06-28T06:16:10.013Z,87200
2017-06-28T06:16:50.578Z,89696
2017-06-28T06:17:31.179Z,92224
2017-06-28T06:18:11.774Z,91936
2017-06-28T06:18:52.409Z,90496
2017-06-28T06:19:32.976Z,88608
2017-06-28T06:20:13.553Z,86880
2017-06-28T06:20:54.136Z,87360
2017-06-28T06:21:34.724Z,87712
2017-06-28T06:22:15.342Z,87712
2017-06-28T06:22:55.935Z,89056
2017-06-28T06:23:36.518Z,88288
2017-06-28T06:24:17.097Z,84992
2017-06-28T06:24:57.679Z,78368
2017-06-28T06:25:38.287Z,80928
2017-06-28T06:26:18.897Z,81984
2017-06-28T06:26:59.463Z,82944
2017-06-28T06:27:40.063Z,85728
2017-06-28T06:28:20.655Z,88000
2017-06-28T06:29:01.255Z,87680
2017-06-28T06:29:41.857Z,86304
2017-06-28T06:30:22.444Z,84864
2017-06-28T06:31:03.049Z,85856
2017-06-28T06:31:43.621Z,87040
2017-06-28T06:32:24.197Z,87392
2017-06-28T06:33:04.784Z,86176
2017-06-28T06:33:45.369Z,85824
2017-06-28T06:34:25.955Z,85920
2017-06-28T06:35:06.535Z,86688
2017-06-28T06:35:47.248Z,85856
2017-06-28T06:36:27.898Z,85344
2017-06-28T06:37:08.474Z,84416
2017-06-28T06:37:49.059Z,85600
2017-06-28T06:38:29.621Z,88608
2017-06-28T06:39:10.231Z,90304
2017-06-28T06:39:50.841Z,90048
2017-06-28T06:40:31.428Z,88544
2017-06-28T06:41:12.017Z,85536
2017-06-28T06:41:52.613Z,85376
2017-06-28T06:42:33.228Z,86304
2017-06-28T06:43:13.814Z,86400
2017-06-28T06:43:54.419Z,86080
2017-06-28T06:44:34.999Z,83936
2017-06-28T06:45:15.573Z,80512
2017-06-28T06:45:56.192Z,79744
2017-06-28T06:46:36.791Z,80640
2017-06-28T06:47:17.393Z,83616
2017-06-28T06:47:57.988Z,86144
2017-06-28T06:48:38.573Z,85120
2017-06-28T06:49:19.190Z,81600
2017-06-28T06:49:59.789Z,78912
2017-06-28T06:50:40.365Z,78752
2017-06-28T06:51:20.970Z,82496
2017-06-28T06:52:01.636Z,84480
2017-06-28T06:52:42.222Z,85760
2017-06-28T06:53:22.821Z,84352
2017-06-28T06:54:03.425Z,82880
2017-06-28T06:54:44.003Z,83456
2017-06-28T06:55:24.598Z,85120
2017-06-28T06:56:05.197Z,87072
2017-06-28T06:56:45.776Z,86656
2017-06-28T06:57:26.370Z,84576
2017-06-28T06:58:06.978Z,80896
2017-06-28T06:58:47.576Z,78944
2017-06-28T06:59:28.172Z,82112
2017-06-28T07:00:08.776Z,82688
2017-06-28T07:00:49.360Z,80576
2017-06-28T07:01:29.934Z,86432
2017-06-28T07:02:10.545Z,85824
2017-06-28T07:02:51.157Z,85024
2017-06-28T07:03:31.734Z,85568
2017-06-28T07:04:12.317Z,86272
2017-06-28T07:04:52.892Z,87840
2017-06-28T07:05:33.478Z,87200
2017-06-28T07:06:14.069Z,83552
2017-06-28T07:06:54.643Z,78048
2017-06-28T07:07:35.238Z,74976
2017-06-28T07:08:15.819Z,78048
2017-06-28T07:08:56.405Z,82688
2017-06-28T07:09:36.975Z,82784
2017-06-28T07:10:17.562Z,80320
2017-06-28T07:10:58.196Z,75936
2017-06-28T07:11:38.802Z,71040
2017-06-28T07:12:19.376Z,69760
2017-06-28T07:12:59.952Z,67776
2017-06-28T07:13:40.536Z,68384
2017-06-28T07:14:21.141Z,71456
2017-06-28T07:15:01.736Z,74656
2017-06-28T07:15:42.322Z,74368
2017-06-28T07:16:22.899Z,73504
2017-06-28T07:17:03.491Z,71776
2017-06-28T07:17:44.069Z,72128
2017-06-28T07:18:24.651Z,72480
2017-06-28T07:19:05.241Z,71200
2017-06-28T07:19:45.853Z,76992
2017-06-28T07:20:26.431Z,77440
2017-06-28T07:21:07.008Z,77024
2017-06-28T07:21:47.592Z,75936
2017-06-28T07:22:28.165Z,76672
2017-06-28T07:23:08.842Z,79392
2017-06-28T07:23:49.418Z,80896
2017-06-28T07:24:30.118Z,82016
2017-06-28T07:25:10.699Z,80288
2017-06-28T07:25:51.301Z,78400
2017-06-28T07:26:31.897Z,78432
2017-06-28T07:27:12.490Z,81664
2017-06-28T07:27:53.074Z,85920
2017-06-28T07:28:33.700Z,88128
2017-06-28T07:29:14.307Z,87072
2017-06-28T07:29:54.867Z,85792
2017-06-28T07:30:35.530Z,88416
2017-06-28T07:31:16.135Z,87072
2017-06-28T07:31:56.710Z,84096
2017-06-28T07:32:37.297Z,83392
2017-06-28T07:33:17.884Z,83584
2017-06-28T07:33:58.473Z,84448
2017-06-28T07:34:39.062Z,85536
2017-06-28T07:35:19.643Z,88160
2017-06-28T07:36:00.241Z,87648
2017-06-28T07:36:40.829Z,85152
2017-06-28T07:37:21.402Z,85952
2017-06-28T07:38:02.030Z,81152
2017-06-28T07:38:42.603Z,78112
2017-06-28T07:39:23.222Z,80128
2017-06-28T07:40:03.822Z,82272
2017-06-28T07:40:44.550Z,81312
2017-06-28T07:41:25.105Z,79744
2017-06-28T07:42:05.710Z,52256
2017-06-28T07:42:46.314Z,44736
2017-06-28T07:43:27.253Z,48768
2017-06-28T07:44:07.753Z,33600
2017-06-28T07:44:48.578Z,40864
2017-06-28T07:45:29.484Z,52128
2017-06-28T07:46:10.057Z,53120
2017-06-28T07:46:50.663Z,49408
2017-06-28T07:47:31.253Z,52000
2017-06-28T07:48:11.854Z,35968
2017-06-28T07:48:52.430Z,26848
2017-06-28T07:49:33.179Z,24768
2017-06-28T07:50:13.732Z,30176
2017-06-28T07:50:54.383Z,33568
2017-06-28T07:51:34.976Z,21056
2017-06-28T07:52:15.585Z,20288
2017-06-28T07:52:56.234Z,21376
2017-06-28T07:53:36.927Z,26112
2017-06-28T07:54:17.664Z,51264
2017-06-28T07:54:58.258Z,66464
2017-06-28T07:55:38.867Z,67776
2017-06-28T07:56:19.446Z,84256
2017-06-28T07:57:00.009Z,91168
2017-06-28T07:57:40.600Z,94048
2017-06-28T07:58:21.376Z,91008
2017-06-28T07:59:01.999Z,87200
2017-06-28T07:59:42.719Z,76928
2017-06-28T08:00:23.321Z,75168
2017-06-28T08:01:04.008Z,65920
2017-06-28T08:01:44.804Z,70720
2017-06-28T08:02:25.602Z,58272
2017-06-28T08:03:06.041Z,43296
2017-06-28T08:03:46.702Z,32832
2017-06-28T08:04:27.283Z,21920
2017-06-28T08:05:07.888Z,19520
2017-06-28T08:05:48.571Z,18144
2017-06-28T08:06:29.180Z,17824
2017-06-28T08:07:09.790Z,17504
2017-06-28T08:07:50.366Z,17056
2017-06-28T08:08:30.971Z,16672
2017-06-28T08:09:11.583Z,16384
2017-06-28T08:09:52.204Z,16128
2017-06-28T08:10:32.791Z,15744
2017-06-28T08:11:13.487Z,15336
2017-06-28T08:11:54.342Z,15072
2017-06-28T08:12:35.051Z,14760
2017-06-28T08:13:16.095Z,14548
2017-06-28T08:13:56.851Z,14252
2017-06-28T08:14:37.599Z,13756
2017-06-28T08:15:18.178Z,12896
2017-06-28T08:15:58.798Z,12328
2017-06-28T08:16:39.412Z,12008
2017-06-28T08:17:20.034Z,12060
2017-06-28T08:18:00.666Z,12436
2017-06-28T08:18:41.288Z,12532
2017-06-28T08:19:21.850Z,13296
2017-06-28T08:20:02.510Z,13056
2017-06-28T08:20:43.118Z,13040
2017-06-28T08:21:23.725Z,13212
2017-06-28T08:22:04.295Z,13176
2017-06-28T08:22:44.896Z,12760
2017-06-28T08:23:25.481Z,12288
2017-06-28T08:24:06.065Z,12164
2017-06-28T08:24:46.633Z,12240
2017-06-28T08:25:27.224Z,12032
2017-06-28T08:26:07.826Z,11820
2017-06-28T08:26:48.397Z,11472
2017-06-28T08:27:28.981Z,11328
2017-06-28T08:28:09.590Z,11040
2017-06-28T08:28:50.180Z,10932
2017-06-28T08:29:30.751Z,10712
2017-06-28T08:30:11.329Z,10576
2017-06-28T08:30:51.900Z,10388
2017-06-28T08:31:32.493Z,10228
2017-06-28T08:32:13.063Z,10232
2017-06-28T08:32:53.635Z,10064
2017-06-28T08:33:34.226Z,10148
2017-06-28T08:34:14.809Z,10152
2017-06-28T08:34:55.390Z,10192
2017-06-28T08:35:35.969Z,10148
2017-06-28T08:36:16.776Z,10148
2017-06-28T08:36:57.365Z,10208
2017-06-28T08:37:37.948Z,10288
2017-06-28T08:38:18.570Z,10172
2017-06-28T08:38:59.153Z,9744
2017-06-28T08:39:39.716Z,9628
2017-06-28T08:40:20.310Z,9440
2017-06-28T08:41:00.908Z,9224
2017-06-28T08:41:41.539Z,8988
2017-06-28T08:42:22.116Z,8716
2017-06-28T08:43:02.705Z,8676
2017-06-28T08:43:43.296Z,8532
2017-06-28T08:44:23.885Z,8536
2017-06-28T08:45:04.476Z,8452
2017-06-28T08:45:45.074Z,8392
2017-06-28T08:46:25.670Z,8420
2017-06-28T08:47:06.276Z,8540
2017-06-28T08:47:46.838Z,8708
2017-06-28T08:48:27.454Z,8860
2017-06-28T08:49:08.048Z,8996
2017-06-28T08:49:48.650Z,8920
2017-06-28T08:50:29.251Z,8996
2017-06-28T08:51:09.837Z,9028
2017-06-28T08:51:50.429Z,8996
2017-06-28T08:52:31.062Z,8896
2017-06-28T08:53:11.650Z,8552
2017-06-28T08:53:52.227Z,8208
2017-06-28T08:54:32.802Z,7972
2017-06-28T08:55:13.425Z,7888
2017-06-28T08:55:54.206Z,7720
2017-06-28T08:56:34.785Z,7680
2017-06-28T08:57:15.371Z,7796
2017-06-28T08:57:55.984Z,7908
2017-06-28T08:58:36.600Z,7908
2017-06-28T08:59:17.197Z,7908
2017-06-28T08:59:57.777Z,7900
2017-06-28T09:00:38.362Z,8116
2017-06-28T09:01:18.983Z,8196
2017-06-28T09:01:59.571Z,8092
2017-06-28T09:02:40.154Z,7912
2017-06-28T09:03:20.739Z,7544
2017-06-28T09:04:01.320Z,7372
2017-06-28T09:04:42.314Z,7112
2017-06-28T09:05:22.898Z,7032
2017-06-28T09:06:03.502Z,6968
2017-06-28T09:06:44.419Z,6868
2017-06-28T09:07:25.067Z,6796
2017-06-28T09:08:05.641Z,6752
2017-06-28T09:08:46.229Z,6708
2017-06-28T09:09:26.837Z,6628
2017-06-28T09:10:07.435Z,6596
2017-06-28T09:10:48.050Z,6632
2017-06-28T09:11:28.653Z,6404